sensor_id;sensor_type;location;lat;lon;timestamp;pressure;altitude;pressure_sealevel;temperature;humidity
4705;BME280;2366;51.332;6.610;2022-10-16T00:01:19;100969.38;;;15.48;85.37
4705;BME280;2366;51.332;6.610;2022-10-16T00:03:46;100968.53;;;15.48;85.25
4705;BME280;2366;51.332;6.610;2022-10-16T00:06:13;100969.38;;;15.48;85.33
4705;BME280;2366;51.332;6.610;2022-10-16T00:08:39;100971.09;;;15.49;85.41
4705;BME280;2366;51.332;6.610;2022-10-16T00:11:14;100961.38;;;15.48;85.27
4705;BME280;2366;51.332;6.610;2022-10-16T00:13:41;100962.38;;;15.47;85.26
4705;BME280;2366;51.332;6.610;2022-10-16T00:16:08;100974.03;;;15.46;85.35
4705;BME280;2366;51.332;6.610;2022-10-16T00:18:34;100984.09;;;15.43;85.07
4705;BME280;2366;51.332;6.610;2022-10-16T00:21:04;100975.94;;;15.33;85.28
4705;BME280;2366;51.332;6.610;2022-10-16T00:23:31;100977.13;;;15.29;85.63
4705;BME280;2366;51.332;6.610;2022-10-16T00:26:00;100976.91;;;15.32;85.65
4705;BME280;2366;51.332;6.610;2022-10-16T00:28:26;100979.31;;;15.35;85.51
4705;BME280;2366;51.332;6.610;2022-10-16T00:30:51;100967.56;;;15.37;85.52
4705;BME280;2366;51.332;6.610;2022-10-16T00:33:17;100970.13;;;15.39;85.59
4705;BME280;2366;51.332;6.610;2022-10-16T00:35:42;100964.78;;;15.39;85.37
4705;BME280;2366;51.332;6.610;2022-10-16T00:38:08;100961.38;;;15.37;85.53
4705;BME280;2366;51.332;6.610;2022-10-16T00:40:34;100970.22;;;15.37;85.40
4705;BME280;2366;51.332;6.610;2022-10-16T00:42:59;100979.31;;;15.35;85.34
4705;BME280;2366;51.332;6.610;2022-10-16T00:45:24;100972.41;;;15.32;85.72
4705;BME280;2366;51.332;6.610;2022-10-16T00:47:51;100965.50;;;15.30;85.66
4705;BME280;2366;51.332;6.610;2022-10-16T00:50:27;100965.00;;;15.25;85.80
4705;BME280;2366;51.332;6.610;2022-10-16T00:52:54;100952.38;;;15.27;85.67
4705;BME280;2366;51.332;6.610;2022-10-16T00:55:20;100951.50;;;15.26;85.72
4705;BME280;2366;51.332;6.610;2022-10-16T00:57:48;100955.06;;;15.27;85.60
4705;BME280;2366;51.332;6.610;2022-10-16T01:00:19;100959.53;;;15.26;85.70
4705;BME280;2366;51.332;6.610;2022-10-16T01:02:52;100960.41;;;15.27;85.63
4705;BME280;2366;51.332;6.610;2022-10-16T01:05:18;100955.06;;;15.27;85.73
4705;BME280;2366;51.332;6.610;2022-10-16T01:13:01;100973.22;;;15.22;85.59
4705;BME280;2366;51.332;6.610;2022-10-16T01:15:41;100973.22;;;15.22;85.45
4705;BME280;2366;51.332;6.610;2022-10-16T01:21:03;100974.97;;;15.23;85.60
4705;BME280;2366;51.332;6.610;2022-10-16T01:23:49;100968.66;;;15.35;86.07
4705;BME280;2366;51.332;6.610;2022-10-16T01:28:57;100974.78;;;15.59;86.19
4705;BME280;2366;51.332;6.610;2022-10-16T01:31:29;100972.56;;;15.65;86.05
4705;BME280;2366;51.332;6.610;2022-10-16T01:34:02;100974.03;;;15.69;85.97
4705;BME280;2366;51.332;6.610;2022-10-16T01:36:55;100972.88;;;15.73;86.21
4705;BME280;2366;51.332;6.610;2022-10-16T01:39:24;100960.69;;;15.80;86.13
4705;BME280;2366;51.332;6.610;2022-10-16T01:42:03;100970.19;;;15.84;86.02
4705;BME280;2366;51.332;6.610;2022-10-16T01:44:32;100969.56;;;15.80;85.31
4705;BME280;2366;51.332;6.610;2022-10-16T01:46:59;100966.25;;;15.66;85.12
4705;BME280;2366;51.332;6.610;2022-10-16T01:49:27;100962.09;;;15.50;84.95
4705;BME280;2366;51.332;6.610;2022-10-16T01:51:56;100964.88;;;15.37;84.77
4705;BME280;2366;51.332;6.610;2022-10-16T01:54:28;100967.19;;;15.31;84.53
4705;BME280;2366;51.332;6.610;2022-10-16T01:56:55;100971.75;;;15.17;84.57
4705;BME280;2366;51.332;6.610;2022-10-16T01:59:25;100973.56;;;15.06;84.79
4705;BME280;2366;51.332;6.610;2022-10-16T02:01:56;100976.59;;;15.01;85.07
4705;BME280;2366;51.332;6.610;2022-10-16T02:04:32;100982.16;;;14.98;85.19
4705;BME280;2366;51.332;6.610;2022-10-16T02:06:58;100978.53;;;14.99;85.40
4705;BME280;2366;51.332;6.610;2022-10-16T02:09:24;100984.81;;;14.98;85.33
4705;BME280;2366;51.332;6.610;2022-10-16T02:11:52;100987.28;;;15.01;85.64
4705;BME280;2366;51.332;6.610;2022-10-16T02:14:19;100991.28;;;15.07;85.76
4705;BME280;2366;51.332;6.610;2022-10-16T02:16:47;100989.97;;;15.12;85.93
4705;BME280;2366;51.332;6.610;2022-10-16T02:19:13;100990.97;;;15.23;85.95
4705;BME280;2366;51.332;6.610;2022-10-16T02:21:42;100994.03;;;15.29;85.79
4705;BME280;2366;51.332;6.610;2022-10-16T02:27:06;100999.03;;;15.45;85.56
4705;BME280;2366;51.332;6.610;2022-10-16T02:29:38;100988.81;;;15.50;85.55
4705;BME280;2366;51.332;6.610;2022-10-16T02:32:07;101000.25;;;15.52;85.30
4705;BME280;2366;51.332;6.610;2022-10-16T02:34:34;100992.22;;;15.52;85.25
4705;BME280;2366;51.332;6.610;2022-10-16T02:37:01;100996.09;;;15.48;85.47
4705;BME280;2366;51.332;6.610;2022-10-16T02:39:28;100998.44;;;15.53;85.23
4705;BME280;2366;51.332;6.610;2022-10-16T02:41:54;100998.44;;;15.53;85.15
4705;BME280;2366;51.332;6.610;2022-10-16T02:44:20;100990.28;;;15.54;85.09
4705;BME280;2366;51.332;6.610;2022-10-16T02:46:45;100995.78;;;15.53;85.05
4705;BME280;2366;51.332;6.610;2022-10-16T02:49:10;100991.38;;;15.52;85.34
4705;BME280;2366;51.332;6.610;2022-10-16T02:51:36;100991.75;;;15.58;85.01
4705;BME280;2366;51.332;6.610;2022-10-16T02:54:02;100985.94;;;15.65;85.29
4705;BME280;2366;51.332;6.610;2022-10-16T02:56:27;100987.63;;;15.66;85.27
4705;BME280;2366;51.332;6.610;2022-10-16T02:58:53;100990.81;;;15.71;84.92
4705;BME280;2366;51.332;6.610;2022-10-16T03:01:18;100993.41;;;15.72;84.73
4705;BME280;2366;51.332;6.610;2022-10-16T03:03:43;101001.50;;;15.71;84.45
4705;BME280;2366;51.332;6.610;2022-10-16T03:06:09;100992.97;;;15.66;84.40
4705;BME280;2366;51.332;6.610;2022-10-16T03:08:34;100994.06;;;15.63;84.08
4705;BME280;2366;51.332;6.610;2022-10-16T03:10:59;100992.38;;;15.62;84.23
4705;BME280;2366;51.332;6.610;2022-10-16T03:13:25;100989.81;;;15.60;84.26
4705;BME280;2366;51.332;6.610;2022-10-16T03:15:50;100985.47;;;15.59;84.26
4705;BME280;2366;51.332;6.610;2022-10-16T03:18:15;100991.16;;;15.55;84.34
4705;BME280;2366;51.332;6.610;2022-10-16T03:20:42;100990.28;;;15.54;84.43
4705;BME280;2366;51.332;6.610;2022-10-16T03:23:08;100993.09;;;15.53;84.20
4705;BME280;2366;51.332;6.610;2022-10-16T03:25:33;100988.81;;;15.50;84.20
4705;BME280;2366;51.332;6.610;2022-10-16T03:27:59;100988.81;;;15.50;83.92
4705;BME280;2366;51.332;6.610;2022-10-16T03:30:24;100990.06;;;15.46;84.05
4705;BME280;2366;51.332;6.610;2022-10-16T03:32:49;100991.13;;;15.44;83.81
4705;BME280;2366;51.332;6.610;2022-10-16T03:35:20;100996.59;;;15.42;83.74
4705;BME280;2366;51.332;6.610;2022-10-16T03:37:45;100998.75;;;15.37;83.53
4705;BME280;2366;51.332;6.610;2022-10-16T03:40:10;101007.75;;;15.36;83.67
4705;BME280;2366;51.332;6.610;2022-10-16T03:42:36;101009.91;;;15.31;83.36
4705;BME280;2366;51.332;6.610;2022-10-16T03:45:01;101001.53;;;15.24;83.29
4705;BME280;2366;51.332;6.610;2022-10-16T03:47:26;100999.19;;;15.19;83.41
4705;BME280;2366;51.332;6.610;2022-10-16T03:49:52;101011.34;;;15.12;83.27
4705;BME280;2366;51.332;6.610;2022-10-16T03:52:17;101010.84;;;15.07;83.25
4705;BME280;2366;51.332;6.610;2022-10-16T03:54:43;101006.06;;;14.99;83.17
4705;BME280;2366;51.332;6.610;2022-10-16T03:57:08;100998.41;;;14.95;83.20
4705;BME280;2366;51.332;6.610;2022-10-16T03:59:33;101002.16;;;14.92;83.43
4705;BME280;2366;51.332;6.610;2022-10-16T04:01:59;101003.25;;;14.90;83.39
4705;BME280;2366;51.332;6.610;2022-10-16T04:04:24;101011.25;;;14.90;83.56
4705;BME280;2366;51.332;6.610;2022-10-16T04:06:50;101021.94;;;14.90;83.63
4705;BME280;2366;51.332;6.610;2022-10-16T04:09:15;101026.41;;;14.89;83.58
4705;BME280;2366;51.332;6.610;2022-10-16T04:11:41;101026.41;;;14.89;83.62
4705;BME280;2366;51.332;6.610;2022-10-16T04:14:06;101021.19;;;14.88;83.60
4705;BME280;2366;51.332;6.610;2022-10-16T04:16:31;101022.16;;;14.87;83.69
4705;BME280;2366;51.332;6.610;2022-10-16T04:18:56;101024.91;;;14.85;83.53
4705;BME280;2366;51.332;6.610;2022-10-16T04:21:22;101032.44;;;14.80;83.44
4705;BME280;2366;51.332;6.610;2022-10-16T04:23:47;101043.22;;;14.78;83.65
4705;BME280;2366;51.332;6.610;2022-10-16T04:26:13;101040.53;;;14.78;83.59
4705;BME280;2366;51.332;6.610;2022-10-16T04:28:39;101045.88;;;14.78;83.70
4705;BME280;2366;51.332;6.610;2022-10-16T04:31:05;101049.53;;;14.77;83.83
4705;BME280;2366;51.332;6.610;2022-10-16T04:33:31;101054.13;;;14.75;83.80
4705;BME280;2366;51.332;6.610;2022-10-16T04:35:58;101058.81;;;14.72;83.57
4705;BME280;2366;51.332;6.610;2022-10-16T04:38:24;101064.28;;;14.70;83.59
4705;BME280;2366;51.332;6.610;2022-10-16T04:40:50;101046.06;;;14.64;83.71
4705;BME280;2366;51.332;6.610;2022-10-16T04:43:15;101050.41;;;14.65;83.63
4705;BME280;2366;51.332;6.610;2022-10-16T04:45:41;101056.38;;;14.69;83.88
4705;BME280;2366;51.332;6.610;2022-10-16T04:48:06;101058.72;;;14.73;84.06
4705;BME280;2366;51.332;6.610;2022-10-16T04:50:31;101070.03;;;14.77;84.12
4705;BME280;2366;51.332;6.610;2022-10-16T04:52:57;101060.59;;;14.84;83.66
4705;BME280;2366;51.332;6.610;2022-10-16T04:55:22;101069.25;;;14.88;83.59
4705;BME280;2366;51.332;6.610;2022-10-16T04:57:47;101078.00;;;14.90;83.49
4705;BME280;2366;51.332;6.610;2022-10-16T05:00:13;101080.41;;;14.93;83.53
4705;BME280;2366;51.332;6.610;2022-10-16T05:02:38;101082.00;;;14.95;83.69
4705;BME280;2366;51.332;6.610;2022-10-16T05:05:04;101079.97;;;14.99;83.59
4705;BME280;2366;51.332;6.610;2022-10-16T05:07:29;101092.78;;;14.94;83.84
4705;BME280;2366;51.332;6.610;2022-10-16T05:09:55;101087.69;;;14.91;83.99
4705;BME280;2366;51.332;6.610;2022-10-16T05:12:20;101092.03;;;14.92;84.11
4705;BME280;2366;51.332;6.610;2022-10-16T05:14:45;101090.25;;;14.92;84.28
4705;BME280;2366;51.332;6.610;2022-10-16T05:17:11;101090.84;;;14.96;84.59
4705;BME280;2366;51.332;6.610;2022-10-16T05:19:36;101089.16;;;14.95;84.27
4705;BME280;2366;51.332;6.610;2022-10-16T05:22:01;101097.28;;;14.93;84.30
4705;BME280;2366;51.332;6.610;2022-10-16T05:24:27;101092.78;;;14.94;84.35
4705;BME280;2366;51.332;6.610;2022-10-16T05:26:53;101097.28;;;14.93;84.12
4705;BME280;2366;51.332;6.610;2022-10-16T05:29:18;101099.22;;;14.91;84.36
4705;BME280;2366;51.332;6.610;2022-10-16T05:31:44;101100.28;;;14.89;84.52
4705;BME280;2366;51.332;6.610;2022-10-16T05:34:09;101093.88;;;14.91;84.58
4705;BME280;2366;51.332;6.610;2022-10-16T05:36:35;101099.75;;;14.96;84.34
4705;BME280;2366;51.332;6.610;2022-10-16T05:39:00;101108.69;;;14.95;84.20
4705;BME280;2366;51.332;6.610;2022-10-16T05:41:26;101106.88;;;14.96;84.44
4705;BME280;2366;51.332;6.610;2022-10-16T05:43:52;101099.00;;;14.94;84.50
4705;BME280;2366;51.332;6.610;2022-10-16T05:46:18;101111.47;;;14.94;84.55
4705;BME280;2366;51.332;6.610;2022-10-16T05:48:44;101115.22;;;14.91;84.52
4705;BME280;2366;51.332;6.610;2022-10-16T05:51:12;101119.81;;;14.89;84.50
4705;BME280;2366;51.332;6.610;2022-10-16T05:53:38;101130.75;;;14.86;84.40
4705;BME280;2366;51.332;6.610;2022-10-16T05:56:05;101123.91;;;14.82;84.40
4705;BME280;2366;51.332;6.610;2022-10-16T05:58:32;101139.28;;;14.78;84.37
4705;BME280;2366;51.332;6.610;2022-10-16T06:01:00;101139.53;;;14.75;84.31
4705;BME280;2366;51.332;6.610;2022-10-16T06:03:27;101144.13;;;14.73;84.54
4705;BME280;2366;51.332;6.610;2022-10-16T06:05:53;101151.28;;;14.73;84.66
4705;BME280;2366;51.332;6.610;2022-10-16T06:08:19;101149.47;;;14.73;84.63
4705;BME280;2366;51.332;6.610;2022-10-16T06:10:45;101142.19;;;14.75;84.70
4705;BME280;2366;51.332;6.610;2022-10-16T06:13:12;101149.00;;;14.79;84.66
4705;BME280;2366;51.332;6.610;2022-10-16T06:15:38;101152.28;;;14.83;85.04
4705;BME280;2366;51.332;6.610;2022-10-16T06:18:04;101158.06;;;14.90;85.07
4705;BME280;2366;51.332;6.610;2022-10-16T06:20:30;101158.56;;;14.95;84.93
4705;BME280;2366;51.332;6.610;2022-10-16T06:22:56;101157.25;;;15.00;84.91
4705;BME280;2366;51.332;6.610;2022-10-16T06:25:22;101158.66;;;15.06;84.39
4705;BME280;2366;51.332;6.610;2022-10-16T06:27:47;101169.63;;;15.14;84.89
4705;BME280;2366;51.332;6.610;2022-10-16T06:30:12;101176.22;;;15.22;84.70
4705;BME280;2366;51.332;6.610;2022-10-16T06:32:38;101174.06;;;15.27;84.47
4705;BME280;2366;51.332;6.610;2022-10-16T06:35:03;101174.47;;;15.33;84.47
4705;BME280;2366;51.332;6.610;2022-10-16T06:37:29;101172.94;;;15.42;84.31
4705;BME280;2366;51.332;6.610;2022-10-16T06:39:54;101180.00;;;15.54;84.22
4705;BME280;2366;51.332;6.610;2022-10-16T06:42:19;101181.59;;;15.57;83.78
4705;BME280;2366;51.332;6.610;2022-10-16T06:44:45;101191.44;;;15.56;83.67
4705;BME280;2366;51.332;6.610;2022-10-16T06:47:10;101186.72;;;15.60;83.16
4705;BME280;2366;51.332;6.610;2022-10-16T06:49:36;101195.69;;;15.59;83.12
4705;BME280;2366;51.332;6.610;2022-10-16T06:52:01;101210.66;;;15.61;83.16
4705;BME280;2366;51.332;6.610;2022-10-16T06:54:27;101224.63;;;15.65;83.19
4705;BME280;2366;51.332;6.610;2022-10-16T06:56:53;101225.47;;;15.66;82.93
4705;BME280;2366;51.332;6.610;2022-10-16T06:59:20;101229.38;;;15.61;82.84
4705;BME280;2366;51.332;6.610;2022-10-16T07:01:45;101238.97;;;15.64;82.60
4705;BME280;2366;51.332;6.610;2022-10-16T07:04:11;101244.88;;;15.56;82.57
4705;BME280;2366;51.332;6.610;2022-10-16T07:06:36;101243.41;;;15.52;82.76
4705;BME280;2366;51.332;6.610;2022-10-16T07:09:04;101248.00;;;15.50;82.58
4705;BME280;2366;51.332;6.610;2022-10-16T07:11:30;101252.41;;;15.51;82.44
4705;BME280;2366;51.332;6.610;2022-10-16T07:13:55;101250.91;;;15.47;82.27
4705;BME280;2366;51.332;6.610;2022-10-16T07:16:25;101253.94;;;15.43;82.26
4705;BME280;2366;51.332;6.610;2022-10-16T07:18:53;101253.94;;;15.43;82.28
4705;BME280;2366;51.332;6.610;2022-10-16T07:21:23;101261.84;;;15.44;82.29
4705;BME280;2366;51.332;6.610;2022-10-16T07:23:55;101259.66;;;15.49;82.50
4705;BME280;2366;51.332;6.610;2022-10-16T07:26:20;101266.69;;;16.11;82.67
4705;BME280;2366;51.332;6.610;2022-10-16T07:28:46;101263.16;;;17.25;80.32
4705;BME280;2366;51.332;6.610;2022-10-16T07:31:13;101264.91;;;17.58;78.59
4705;BME280;2366;51.332;6.610;2022-10-16T07:33:40;101275.59;;;17.70;77.88
4705;BME280;2366;51.332;6.610;2022-10-16T07:36:07;101283.97;;;17.88;78.07
4705;BME280;2366;51.332;6.610;2022-10-16T07:38:32;101287.34;;;18.43;78.00
4705;BME280;2366;51.332;6.610;2022-10-16T07:40:59;101297.84;;;19.88;75.33
4705;BME280;2366;51.332;6.610;2022-10-16T07:43:25;101304.03;;;22.05;69.72
4705;BME280;2366;51.332;6.610;2022-10-16T07:45:51;101303.09;;;24.62;57.55
4705;BME280;2366;51.332;6.610;2022-10-16T07:48:17;101300.75;;;26.46;50.10
4705;BME280;2366;51.332;6.610;2022-10-16T07:50:43;101309.06;;;27.78;47.86
4705;BME280;2366;51.332;6.610;2022-10-16T07:53:10;101300.75;;;28.86;45.00
4705;BME280;2366;51.332;6.610;2022-10-16T07:55:36;101314.81;;;29.18;44.63
4705;BME280;2366;51.332;6.610;2022-10-16T07:58:01;101313.66;;;30.15;43.67
4705;BME280;2366;51.332;6.610;2022-10-16T08:00:27;101305.78;;;31.05;40.39
4705;BME280;2366;51.332;6.610;2022-10-16T08:02:52;101302.59;;;31.22;38.28
4705;BME280;2366;51.332;6.610;2022-10-16T08:05:18;101298.72;;;30.51;36.69
4705;BME280;2366;51.332;6.610;2022-10-16T08:07:48;101302.53;;;30.50;38.56
4705;BME280;2366;51.332;6.610;2022-10-16T08:10:16;101313.03;;;30.86;37.30
4705;BME280;2366;51.332;6.610;2022-10-16T08:12:42;101314.50;;;30.76;37.22
4705;BME280;2366;51.332;6.610;2022-10-16T08:15:08;101314.66;;;31.59;36.16
4705;BME280;2366;51.332;6.610;2022-10-16T08:17:33;101304.13;;;31.04;35.01
4705;BME280;2366;51.332;6.610;2022-10-16T08:19:58;101309.66;;;30.51;35.07
4705;BME280;2366;51.332;6.610;2022-10-16T08:22:24;101318.31;;;30.35;36.35
4705;BME280;2366;51.332;6.610;2022-10-16T08:24:49;101319.50;;;30.99;36.18
4705;BME280;2366;51.332;6.610;2022-10-16T08:27:14;101343.44;;;31.75;35.14
4705;BME280;2366;51.332;6.610;2022-10-16T08:29:40;101335.09;;;32.27;33.91
4705;BME280;2366;51.332;6.610;2022-10-16T08:32:05;101336.03;;;31.30;33.37
4705;BME280;2366;51.332;6.610;2022-10-16T08:34:31;101337.31;;;31.28;35.15
4705;BME280;2366;51.332;6.610;2022-10-16T08:36:56;101347.97;;;31.56;34.38
4705;BME280;2366;51.332;6.610;2022-10-16T08:39:21;101352.78;;;30.76;34.74
4705;BME280;2366;51.332;6.610;2022-10-16T08:47:03;101359.72;;;30.91;34.99
4705;BME280;2366;51.332;6.610;2022-10-16T08:49:32;101362.41;;;31.11;34.90
4705;BME280;2366;51.332;6.610;2022-10-16T08:51:57;101362.47;;;31.63;33.82
4705;BME280;2366;51.332;6.610;2022-10-16T08:54:34;101368.78;;;30.92;35.34
4705;BME280;2366;51.332;6.610;2022-10-16T08:57:13;101372.44;;;31.89;34.16
4705;BME280;2366;51.332;6.610;2022-10-16T08:59:39;101378.66;;;31.00;34.53
4705;BME280;2366;51.332;6.610;2022-10-16T09:02:23;101366.78;;;31.32;34.33
4705;BME280;2366;51.332;6.610;2022-10-16T09:05:02;101364.47;;;31.36;34.78
4705;BME280;2366;51.332;6.610;2022-10-16T09:07:43;101375.31;;;30.71;34.36
4705;BME280;2366;51.332;6.610;2022-10-16T09:13:27;101376.16;;;30.65;34.37
4705;BME280;2366;51.332;6.610;2022-10-16T09:21:24;101364.78;;;25.24;43.50
4705;BME280;2366;51.332;6.610;2022-10-16T09:23:50;101364.22;;;23.64;47.71
4705;BME280;2366;51.332;6.610;2022-10-16T09:26:17;101371.75;;;22.66;50.51
4705;BME280;2366;51.332;6.610;2022-10-16T09:28:44;101374.63;;;22.46;51.90
4705;BME280;2366;51.332;6.610;2022-10-16T09:31:20;101374.84;;;23.57;50.24
4705;BME280;2366;51.332;6.610;2022-10-16T09:33:51;101380.69;;;23.87;49.16
4705;BME280;2366;51.332;6.610;2022-10-16T09:36:19;101381.91;;;22.72;51.37
4705;BME280;2366;51.332;6.610;2022-10-16T09:38:45;101375.97;;;21.97;53.34
4705;BME280;2366;51.332;6.610;2022-10-16T09:41:19;101378.13;;;21.47;54.90
4705;BME280;2366;51.332;6.610;2022-10-16T09:48:54;101374.00;;;20.96;56.97
4705;BME280;2366;51.332;6.610;2022-10-16T09:51:30;101378.56;;;20.96;57.34
4705;BME280;2366;51.332;6.610;2022-10-16T09:53:57;101379.72;;;20.93;57.44
4705;BME280;2366;51.332;6.610;2022-10-16T09:56:29;101389.63;;;20.92;57.60
4705;BME280;2366;51.332;6.610;2022-10-16T09:58:57;101388.50;;;20.85;58.15
4705;BME280;2366;51.332;6.610;2022-10-16T10:01:35;101382.84;;;20.88;57.39
4705;BME280;2366;51.332;6.610;2022-10-16T10:04:02;101381.97;;;20.98;57.92
4705;BME280;2366;51.332;6.610;2022-10-16T10:06:31;101383.22;;;21.03;57.83
4705;BME280;2366;51.332;6.610;2022-10-16T10:12:02;101390.06;;;20.98;57.88
4705;BME280;2366;51.332;6.610;2022-10-16T10:14:50;101382.94;;;20.97;58.10
4705;BME280;2366;51.332;6.610;2022-10-16T10:17:24;101390.75;;;20.90;58.18
4705;BME280;2366;51.332;6.610;2022-10-16T10:19:58;101393.59;;;20.98;58.32
4705;BME280;2366;51.332;6.610;2022-10-16T10:22:42;101404.06;;;21.11;57.87
4705;BME280;2366;51.332;6.610;2022-10-16T10:28:06;101402.94;;;21.79;57.33
4705;BME280;2366;51.332;6.610;2022-10-16T10:46:56;101415.53;;;22.51;55.25
4705;BME280;2366;51.332;6.610;2022-10-16T10:54:36;101412.59;;;22.63;52.99
4705;BME280;2366;51.332;6.610;2022-10-16T10:57:32;101408.75;;;22.47;52.47
4705;BME280;2366;51.332;6.610;2022-10-16T11:00:23;101404.81;;;22.24;53.38
4705;BME280;2366;51.332;6.610;2022-10-16T11:05:43;101407.53;;;22.14;53.91
4705;BME280;2366;51.332;6.610;2022-10-16T11:08:18;101405.03;;;21.85;54.88
4705;BME280;2366;51.332;6.610;2022-10-16T11:11:16;101414.41;;;21.53;55.31
4705;BME280;2366;51.332;6.610;2022-10-16T11:13:58;101411.72;;;21.53;55.84
4705;BME280;2366;51.332;6.610;2022-10-16T11:16:30;101418.19;;;21.32;55.87
4705;BME280;2366;51.332;6.610;2022-10-16T11:19:10;101415.22;;;21.26;55.79
4705;BME280;2366;51.332;6.610;2022-10-16T11:21:44;101413.63;;;21.43;55.57
4705;BME280;2366;51.332;6.610;2022-10-16T11:27:15;101423.81;;;21.49;55.95
4705;BME280;2366;51.332;6.610;2022-10-16T11:29:50;101428.66;;;21.45;55.84
4705;BME280;2366;51.332;6.610;2022-10-16T11:32:24;101422.13;;;21.48;56.06
4705;BME280;2366;51.332;6.610;2022-10-16T11:34:57;101419.53;;;21.56;55.63
4705;BME280;2366;51.332;6.610;2022-10-16T11:37:28;101424.41;;;21.70;55.01
4705;BME280;2366;51.332;6.610;2022-10-16T11:40:03;101412.34;;;21.74;54.57
4705;BME280;2366;51.332;6.610;2022-10-16T11:42:40;101419.38;;;21.85;54.67
4705;BME280;2366;51.332;6.610;2022-10-16T11:47:54;101435.41;;;22.14;54.09
4705;BME280;2366;51.332;6.610;2022-10-16T11:53:01;101430.44;;;22.38;53.98
4705;BME280;2366;51.332;6.610;2022-10-16T11:55:40;101428.44;;;22.58;52.83
4705;BME280;2366;51.332;6.610;2022-10-16T12:00:51;101438.41;;;22.83;51.20
4705;BME280;2366;51.332;6.610;2022-10-16T12:06:31;101431.81;;;22.24;51.39
4705;BME280;2366;51.332;6.610;2022-10-16T12:08:59;101434.00;;;22.10;51.85
4705;BME280;2366;51.332;6.610;2022-10-16T12:14:18;101445.63;;;21.93;51.86
4705;BME280;2366;51.332;6.610;2022-10-16T12:16:56;101444.00;;;22.00;51.73
4705;BME280;2366;51.332;6.610;2022-10-16T12:19:24;101432.91;;;22.03;52.28
4705;BME280;2366;51.332;6.610;2022-10-16T12:21:51;101425.81;;;22.02;52.41
4705;BME280;2366;51.332;6.610;2022-10-16T12:24:38;101440.31;;;22.01;52.79
4705;BME280;2366;51.332;6.610;2022-10-16T12:27:06;101434.66;;;22.22;52.18
4705;BME280;2366;51.332;6.610;2022-10-16T12:29:44;101431.34;;;22.46;52.41
4705;BME280;2366;51.332;6.610;2022-10-16T12:32:35;101437.59;;;22.65;51.73
4705;BME280;2366;51.332;6.610;2022-10-16T12:35:03;101438.59;;;22.64;52.00
4705;BME280;2366;51.332;6.610;2022-10-16T12:37:36;101439.28;;;22.66;51.97
4705;BME280;2366;51.332;6.610;2022-10-16T12:40:13;101435.63;;;22.49;51.19
4705;BME280;2366;51.332;6.610;2022-10-16T12:42:40;101436.69;;;22.38;51.70
4705;BME280;2366;51.332;6.610;2022-10-16T12:47:55;101443.06;;;22.55;52.04
4705;BME280;2366;51.332;6.610;2022-10-16T12:52:49;101447.47;;;22.74;50.97
4705;BME280;2366;51.332;6.610;2022-10-16T12:55:17;101451.66;;;22.50;51.06
4705;BME280;2366;51.332;6.610;2022-10-16T12:58:20;101438.38;;;21.93;51.44
4705;BME280;2366;51.332;6.610;2022-10-16T13:06:03;101444.47;;;21.68;51.96
4705;BME280;2366;51.332;6.610;2022-10-16T13:11:48;101444.19;;;21.71;52.87
4705;BME280;2366;51.332;6.610;2022-10-16T13:20:56;101447.22;;;21.58;53.52
4705;BME280;2366;51.332;6.610;2022-10-16T13:23:31;101446.78;;;21.53;52.79
4705;BME280;2366;51.332;6.610;2022-10-16T13:28:30;101462.00;;;21.44;53.53
4705;BME280;2366;51.332;6.610;2022-10-16T13:30:59;101455.00;;;21.61;53.43
4705;BME280;2366;51.332;6.610;2022-10-16T13:33:34;101455.22;;;21.78;52.40
4705;BME280;2366;51.332;6.610;2022-10-16T13:36:01;101446.09;;;21.88;51.90
4705;BME280;2366;51.332;6.610;2022-10-16T13:38:35;101453.66;;;22.03;50.65
4705;BME280;2366;51.332;6.610;2022-10-16T13:41:12;101454.31;;;22.14;50.44
4705;BME280;2366;51.332;6.610;2022-10-16T13:43:46;101448.81;;;22.34;49.75
4705;BME280;2366;51.332;6.610;2022-10-16T13:46:16;101443.63;;;22.41;49.59
4705;BME280;2366;51.332;6.610;2022-10-16T13:48:42;101445.56;;;22.48;49.46
4705;BME280;2366;51.332;6.610;2022-10-16T13:51:16;101440.59;;;22.62;49.32
4705;BME280;2366;51.332;6.610;2022-10-16T13:53:42;101444.88;;;22.64;49.45
4705;BME280;2366;51.332;6.610;2022-10-16T13:56:18;101462.00;;;22.73;49.49
4705;BME280;2366;51.332;6.610;2022-10-16T13:58:44;101460.97;;;22.74;49.30
4705;BME280;2366;51.332;6.610;2022-10-16T14:01:23;101466.00;;;22.69;48.47
4705;BME280;2366;51.332;6.610;2022-10-16T14:03:50;101475.56;;;22.63;48.44
4705;BME280;2366;51.332;6.610;2022-10-16T14:06:19;101469.34;;;22.45;48.97
4705;BME280;2366;51.332;6.610;2022-10-16T14:08:54;101479.00;;;22.20;49.80
4705;BME280;2366;51.332;6.610;2022-10-16T14:11:23;101472.72;;;22.01;50.38
4705;BME280;2366;51.332;6.610;2022-10-16T14:13:50;101461.13;;;21.91;50.46
4705;BME280;2366;51.332;6.610;2022-10-16T14:16:27;101446.59;;;21.92;50.74
4705;BME280;2366;51.332;6.610;2022-10-16T14:21:23;101440.00;;;22.04;50.64
4705;BME280;2366;51.332;6.610;2022-10-16T14:23:49;101458.69;;;22.15;50.65
4705;BME280;2366;51.332;6.610;2022-10-16T14:26:18;101457.59;;;22.36;51.01
4705;BME280;2366;51.332;6.610;2022-10-16T14:28:45;101457.75;;;22.34;51.22
4705;BME280;2366;51.332;6.610;2022-10-16T14:31:30;101462.22;;;22.26;51.54
4705;BME280;2366;51.332;6.610;2022-10-16T14:33:57;101465.75;;;22.26;52.05
4705;BME280;2366;51.332;6.610;2022-10-16T14:36:23;101462.34;;;22.24;51.52
4705;BME280;2366;51.332;6.610;2022-10-16T14:38:58;101455.00;;;22.17;51.41
4705;BME280;2366;51.332;6.610;2022-10-16T14:41:25;101457.28;;;22.11;51.86
4705;BME280;2366;51.332;6.610;2022-10-16T14:43:53;101464.41;;;22.12;52.05
4705;BME280;2366;51.332;6.610;2022-10-16T14:46:28;101467.50;;;22.18;51.88
4705;BME280;2366;51.332;6.610;2022-10-16T14:49:03;101472.69;;;22.29;51.69
4705;BME280;2366;51.332;6.610;2022-10-16T14:51:30;101470.88;;;22.29;51.38
4705;BME280;2366;51.332;6.610;2022-10-16T14:53:56;101465.81;;;22.17;51.95
4705;BME280;2366;51.332;6.610;2022-10-16T14:56:24;101469.72;;;22.04;51.96
4705;BME280;2366;51.332;6.610;2022-10-16T14:58:50;101460.81;;;21.94;52.76
4705;BME280;2366;51.332;6.610;2022-10-16T15:01:16;101456.69;;;21.90;52.66
4705;BME280;2366;51.332;6.610;2022-10-16T15:03:42;101462.16;;;21.80;53.18